Flight Track Log - Related Links

Times and Time Zones

All times are in EDT time to prevent confusion due to time zone crossing. See the ASQ5680 flight status page for this flight to view local times or setup timezone preferences in your user account.

Time Position Orientation Groundspeed Altitude Reporting Facility
EDT Latitude Longitude Course Direction KTS MPH feet Rate Location/Type
Fri 06:26:58 AM 35.2269 -80.9572 72° East 138 159 1,500  Level Atlanta Center
Fri 06:27:28 AM 35.2500 -80.9667 342° North 162 186 2,500 1,531 Climbing Atlanta Center
Fri 06:28:36 AM 35.3067 -80.9772 351° North 248 285 4,000 1,875 Climbing Atlanta Center
Fri 06:29:00 AM 35.1051 -80.6299 29° Northeast  Level FlightAware Approximate
Fri 06:29:36 AM 35.3189 -80.8903 80° East 286 329 6,500  Level Atlanta Center
Fri 06:30:00 AM 35.1995 -80.5670 29° Northeast  Level FlightAware Approximate
Fri 06:30:36 AM 35.3208 -80.7983 88° East 281 323 8,600  Level Atlanta Center
Fri 06:31:00 AM 35.2924 -80.5007 30° Northeast  Level FlightAware Approximate
Fri 06:31:36 AM 35.3244 -80.7017 87° East 276 318 10,400  Level Atlanta Center
Fri 06:32:00 AM 35.3485 -80.4094 72° East  Level FlightAware Approximate
Fri 06:32:36 AM 35.3256 -80.5919 89° East 292 336 11,500  Level Atlanta Center
Fri 06:34:22 AM 35.3542 -80.3975 80° East 330 380 13,400 1,120 Climbing Washington Center
Fri 06:35:22 AM 35.3925 -80.2775 69° East 351 404 14,600 1,100 Climbing Washington Center
Fri 06:36:22 AM 35.4286 -80.1522 70° East 370 426 15,600 1,109 Climbing Washington Center
Fri 06:37:21 AM 35.4625 -80.0267 72° East 380 437 16,800 1,200 Climbing Washington Center
Fri 06:38:22 AM 35.5094 -79.8864 68° East 391 450 18,000 843 Climbing Washington Center
Fri 06:39:22 AM 35.5619 -79.7589 63° Northeast 409 471 18,500 793 Climbing Washington Center
Fri 06:40:23 AM 35.6203 -79.6344 60° Northeast 422 486 19,600 1,041 Climbing Washington Center
Fri 06:41:23 AM 35.6722 -79.5167 61° Northeast 427 491 20,600 1,026 Climbing Washington Center
Fri 06:42:20 AM 35.7594 -79.4008 47° Northeast 419 482 21,600 1,068 Climbing Washington Center
Fri 06:43:21 AM 35.8603 -79.3133 35° Northeast 424 488 22,700 1,033 Climbing Washington Center
Fri 06:44:22 AM 35.9653 -79.2258 34° Northeast 436 502 23,700 984 Climbing Washington Center
Fri 06:45:23 AM 36.0661 -79.1356 36° Northeast 442 509 24,700 1,068 Climbing Washington Center
Fri 06:46:20 AM 36.1689 -79.0475 35° Northeast 442 509 25,800 1,169 Climbing Washington Center
Fri 06:47:21 AM 36.2736 -78.9594 34° Northeast 447 514 27,000 1,240 Climbing Washington Center
Fri 06:48:21 AM 36.3719 -78.8708 36° Northeast 447 514 28,300 1,279 Climbing Washington Center
Fri 06:49:23 AM 36.4683 -78.7844 36° Northeast 433 498 29,600 1,300 Climbing Washington Center
Fri 06:50:21 AM 36.5644 -78.6978 36° Northeast 433 498 30,900 1,322 Climbing Washington Center
Fri 06:51:21 AM 36.6625 -78.6136 35° Northeast 433 498 32,200 1,190 Climbing Washington Center
Fri 06:52:22 AM 36.7586 -78.5242 37° Northeast 428 493 33,300 1,041 Climbing Washington Center
Fri 06:53:22 AM 36.8525 -78.4394 36° Northeast 428 493 34,300 857 Climbing Washington Center
Fri 06:54:21 AM 36.9506 -78.3519 35° Northeast 422 486 35,000 350 Climbing Washington Center
Fri 06:55:22 AM 37.0547 -78.2594 35° Northeast 429 494 35,000  Level Washington Center
Fri 06:56:20 AM 37.1506 -78.1717 36° Northeast 457 526 35,000  Level Washington Center
Fri 06:57:22 AM 37.2717 -78.0633 35° Northeast 469 540 35,000  Level Washington Center
Fri 06:58:20 AM 37.3844 -77.9600 36° Northeast 484 557 35,000  Level Washington Center
Fri 06:59:23 AM 37.4992 -77.8586 35° Northeast 489 563 35,000  Level Washington Center
Fri 07:00:22 AM 37.6114 -77.7547 36° Northeast 494 568 35,000  Level Washington Center
Fri 07:01:22 AM 37.7217 -77.6553 35° Northeast 494 568 35,000  Level Washington Center
Fri 07:02:21 AM 37.8361 -77.5506 36° Northeast 494 568 35,000  Level Washington Center
Fri 07:03:21 AM 37.9483 -77.4456 36° Northeast 494 568 35,000  Level Washington Center
Fri 07:04:21 AM 38.0625 -77.3456 35° Northeast 494 568 35,000  Level Washington Center
Fri 07:05:21 AM 38.1722 -77.2397 37° Northeast 494 568 35,000  Level Washington Center
Fri 07:06:22 AM 38.2906 -77.1339 35° Northeast 501 577 35,000  Level Washington Center
Fri 07:07:23 AM 38.4003 -77.0303 36° Northeast 501 577 35,000  Level Washington Center
Fri 07:08:22 AM 38.5119 -76.9289 35° Northeast 501 577 35,000  Level Washington Center
Fri 07:09:23 AM 38.6236 -76.8219 37° Northeast 501 577 35,000  Level Washington Center
Fri 07:10:21 AM 38.7247 -76.7225 37° Northeast 501 577 35,000  Level Washington Center
Fri 07:11:22 AM 38.8278 -76.6042 42° Northeast 501 577 35,000 -100 Level Washington Center
Fri 07:12:21 AM 38.9331 -76.4831 42° Northeast 501 577 34,800 -1,311 Descending Washington Center
Fri 07:13:21 AM 39.0381 -76.3611 42° Northeast 501 577 32,400 -2,628 Descending Washington Center
Fri 07:14:22 AM 39.1389 -76.2419 42° Northeast 495 570 29,500 -2,727 Descending Washington Center
Fri 07:15:22 AM 39.2478 -76.1222 40° Northeast 495 570 26,900 -2,339 Descending Washington Center
Fri 07:16:20 AM 39.3503 -75.9994 43° Northeast 500 575 24,900 -1,916 Descending Washington Center
Fri 07:17:21 AM 39.4508 -75.8819 42° Northeast 494 568 23,100 -1,525 Descending Washington Center
Fri 07:18:22 AM 39.5447 -75.7664 43° Northeast 481 554 21,800 -1,131 Descending Washington Center
Fri 07:19:23 AM 39.6386 -75.6561 42° Northeast 469 540 20,800 -992 Descending Washington Center
Fri 07:20:23 AM 39.7322 -75.5456 42° Northeast 455 524 19,800 -1,068 Descending Washington Center
Fri 07:21:21 AM 39.8258 -75.4347 42° Northeast 455 524 18,700 -1,450 Descending Washington Center
Fri 07:22:23 AM 39.9217 -75.3183 43° Northeast 442 509 16,900 -2,410 Descending Washington Center
Fri 07:23:23 AM 40.0047 -75.2150 44° Northeast 424 488 13,800 -2,695 Descending Washington Center
Fri 07:24:21 AM 40.0833 -75.1169 44° Northeast 401 461 11,600 -1,664 Descending Washington Center
Fri 07:25:22 AM 40.1539 -75.0325 42° Northeast 366 421 10,500 -1,151 Descending Washington Center
Fri 07:26:47 AM 40.2333 -74.9333 44° Northeast 300 345 8,800 -1,079 Descending New York TRACON
Fri 07:27:41 AM 40.2833 -74.8500 52° Northeast 287 330 8,000 -526 Descending New York TRACON
Fri 07:28:41 AM 40.3333 -74.7667 52° Northeast 287 330 7,800 -579 Descending New York TRACON
Fri 07:29:35 AM 40.3500 -74.6833 75° East 284 327 6,900 -1,000 Descending New York TRACON
Fri 07:30:35 AM 40.3667 -74.5833 78° East 269 310 5,900 -1,100 Descending New York TRACON
Fri 07:31:35 AM 40.4000 -74.5000 62° Northeast 269 310 4,700 -1,250 Descending New York TRACON
Fri 07:32:35 AM 40.4333 -74.4167 62° Northeast 245 282 3,400 -895 Descending New York TRACON
Fri 07:33:29 AM 40.4667 -74.3667 49° Northeast 190 219 3,000 -222 Descending New York TRACON
Fri 07:34:23 AM 40.5000 -74.3167 49° Northeast 183 211 3,000  Level New York TRACON
Fri 07:35:29 AM 40.5333 -74.2667 49° Northeast 180 207 3,000 -150 Level New York TRACON
Fri 07:36:23 AM 40.5667 -74.2500 21° North 161 185 2,700 -579 Descending New York TRACON
Fri 07:37:23 AM 40.6000 -74.2167 37° Northeast 141 162 1,900 -842 Descending New York TRACON
Fri 07:38:17 AM 40.6333 -74.2000 21° North 133 153 1,100 -789 Descending New York TRACON
Fri 07:39:17 AM 40.6667 -74.1833 21° North 131 151 400 -700 Descending New York TRACON

Login

Don't have an account? Register now (free) for customized features, flight alerts, and more!